Latest Weather Observations for Townsville

IDQ60801

Issued at 11:21 pm EST Wednesday 20 February 2019 (issued every 10 minutes, with the page automatically refreshed every 10 minutes)

About weather observations | Map of weather stations | Latest weather observations for QLD | Other Formats
Station Details ID: 032040 Name: TOWNSVILLE AERO Lat: -19.25 Lon: 146.77 Height: 4.34 m
Data from the previous 72 hours. | See also: Recent months at Townsville
Date/Time
EST
Temp
°C
App
Temp
°C
Dew
Point
°C
Rel
Hum
%
Delta-T
°C
Wind Press
QNH
hPa
Press
MSL
hPa
Rain since
9am
mm
Dir  Spd
km/h
Gust
km/h
Spd
kts
Gust
kts
20/11:00pm 28.7 35.4 25.4 82 2.3 CALM 0 0 0 0 1005.0 1004.9 0.0
20/10:30pm 29.6 34.8 25.1 77 3.2 SW 7 7 4 4 1005.0 1004.9 0.0
20/10:00pm 29.1 34.7 25.7 82 2.4 SW 7 7 4 4 1004.8 1004.7 0.0
20/09:30pm 29.9 34.9 25.4 77 3.2 SSW 9 11 5 6 1004.6 1004.5 0.0
20/09:00pm 29.1 35.6 25.6 81 2.5 W 2 9 1 5 1004.3 1004.2 0.0
20/08:30pm 29.7 34.8 26.2 81 2.5 W 11 13 6 7 1003.9 1003.8 0.0
20/08:00pm 30.3 36.4 27.1 83 2.3 WSW 9 11 5 6 1003.8 1003.7 0.0
20/07:30pm 30.8 36.8 26.3 77 3.2 ENE 7 9 4 5 1003.4 1003.3 0.0
20/07:00pm 31.4 37.5 26.5 75 3.5 NE 7 9 4 5 1003.0 1002.9 0.0
20/06:30pm 32.7 36.9 24.8 63 5.6 E 11 15 6 8 1002.5 1002.4 0.0
20/06:00pm 34.6 37.8 23.1 51 8.0 NNE 11 15 6 8 1002.3 1002.2 0.0
20/05:30pm 36.3 39.6 21.9 43 9.9 N 7 11 4 6 1002.1 1002.0 0.0
20/05:00pm 36.6 39.1 22.5 44 9.8 NNW 13 17 7 9 1001.9 1001.8 0.0
20/04:30pm 36.9 40.0 22.8 44 9.8 N 11 15 6 8 1001.8 1001.7 0.0
20/04:00pm 36.1 38.2 23.7 49 8.7 NE 19 24 10 13 1001.8 1001.7 0.0
20/03:30pm 36.3 36.8 22.6 45 9.5 NE 24 30 13 16 1001.8 1001.7 0.0
20/03:00pm 36.8 39.7 23.9 47 9.1 ENE 15 28 8 15 1002.1 1002.0 0.0
20/02:30pm 39.8 38.9 19.0 30 13.9 WSW 22 35 12 19 1002.4 1002.3 0.0
20/02:00pm 39.3 39.1 19.7 32 13.2 WSW 20 30 11 16 1002.8 1002.7 0.0
20/01:30pm 38.5 38.1 20.2 34 12.3 WSW 22 32 12 17 1003.5 1003.4 0.0
20/01:00pm 38.4 38.3 20.8 36 12.0 WSW 22 33 12 18 1004.2 1004.1 0.0
20/12:30pm 37.3 36.3 20.4 37 11.4 W 26 37 14 20 1004.7 1004.6 0.0
20/12:00pm 37.0 35.7 19.9 36 11.5 W 26 35 14 19 1005.4 1005.3 0.0
20/11:30am 34.6 36.3 23.1 51 8.0 WNW 19 30 10 16 1005.8 1005.7 0.0
20/11:00am 35.6 35.9 22.2 46 9.2 W 24 35 13 19 1006.0 1005.9 0.0
20/10:30am 35.6 35.5 19.9 39 10.5 WSW 20 32 11 17 1006.4 1006.3 0.0
20/10:00am 33.8 36.1 22.1 50 8.0 W 13 19 7 10 1006.7 1006.6 0.0
20/09:30am 32.8 35.8 21.9 52 7.4 WNW 9 15 5 8 1007.0 1006.9 0.0
20/09:00am 31.4 35.5 23.9 64 5.2 NW 9 11 5 6 1007.0 1006.9 0.0
20/08:30am 30.5 35.1 24.7 71 4.1 NW 9 13 5 7 1007.1 1007.0 0.0
20/08:00am 29.1 33.8 25.0 78 2.9 NW 9 13 5 7 1006.8 1006.7 0.0
20/07:30am 28.3 33.4 25.6 85 1.9 WNW 9 9 5 5 1006.6 1006.5 0.0
20/07:00am 27.7 33.0 25.9 90 1.3 W 9 11 5 6 1006.6 1006.5 0.0
20/06:30am 27.2 33.1 25.9 93 0.9 WSW 6 7 3 4 1006.3 1006.2 0.0
20/06:00am 26.6 33.4 25.6 94 0.7 CALM 0 2 0 1 1006.2 1006.1 0.0
20/05:30am 27.0 34.1 26.0 94 0.7 CALM 0 0 0 0 1006.0 1005.9 0.0
20/05:00am 26.7 33.6 25.7 94 0.7 CALM 0 0 0 0 1005.8 1005.7 0.0
20/04:30am 27.1 33.1 26.0 94 0.8 W 6 9 3 5 1005.3 1005.2 0.0
20/04:00am 27.1 32.9 26.0 94 0.8 W 7 9 4 5 1005.4 1005.3 0.0
20/03:30am 27.2 33.2 26.1 94 0.8 W 6 7 3 4 1005.5 1005.4 0.0
20/03:00am 27.5 33.0 26.2 93 0.9 WNW 9 11 5 6 1005.5 1005.4 0.0
20/02:30am 27.6 33.5 26.2 92 1.0 W 7 9 4 5 1005.7 1005.6 0.0
20/02:00am 27.7 33.7 26.3 92 1.0 W 7 7 4 4 1005.9 1005.8 0.0
20/01:30am 27.9 34.1 26.4 91 1.1 NW 6 7 3 4 1006.3 1006.2 0.0
20/01:00am 28.1 35.4 26.3 90 1.3 CALM 0 0 0 0 1006.5 1006.4 0.0
20/12:30am 28.1 33.5 26.0 88 1.5 NW 9 11 5 6 1006.7 1006.6 0.0
20/12:00am 28.5 33.8 25.2 82 2.3 N 7 11 4 6 1006.8 1006.7 0.0
 
Date/Time
EST
Temp
°C
App
Temp
°C
Dew
Point
°C
Rel
Hum
%
Delta-T
°C
Wind Press
QNH
hPa
Press
MSL
hPa
Rain since
9am
mm
Dir  Spd
km/h
Gust
km/h
Spd
kts
Gust
kts
19/11:30pm 28.5 33.1 25.4 83 2.2 NNW 11 15 6 8 1007.2 1007.1 0.0
19/11:00pm 28.9 32.6 25.1 80 2.7 N 15 19 8 10 1007.3 1007.2 0.0
19/10:30pm 28.9 32.8 24.8 78 2.9 N 13 19 7 10 1007.4 1007.3 0.0
19/10:00pm 28.8 32.8 25.1 80 2.6 N 13 19 7 10 1007.0 1006.9 0.0
19/09:30pm 29.1 33.7 25.3 80 2.7 NNW 11 17 6 9 1006.8 1006.7 0.0
19/09:00pm 29.2 33.4 26.0 83 2.3 NNE 15 20 8 11 1006.8 1006.7 0.0
19/08:30pm 29.6 31.3 25.9 80 2.6 ENE 28 35 15 19 1007.0 1006.9 0.0
19/08:00pm 29.9 36.3 26.1 80 2.7 NE 4 13 2 7 1006.6 1006.5 0.0
19/07:30pm 29.8 33.9 26.3 81 2.5 NE 17 19 9 10 1005.4 1005.3 0.0
19/07:00pm 30.2 34.4 26.0 78 3.0 E 15 19 8 10 1005.2 1005.1 0.0
19/06:30pm 30.8 35.7 25.3 72 3.9 NNE 9 11 5 6 1003.9 1003.8 0.0
19/06:00pm 31.7 36.2 25.2 68 4.6 NE 11 13 6 7 1003.7 1003.6 0.0
19/05:30pm 33.2 37.6 24.4 60 6.2 NNE 9 17 5 9 1003.8 1003.7 0.0
19/05:00pm 33.6 37.5 24.2 58 6.6 NNE 11 15 6 8 1003.5 1003.4 0.0
19/04:30pm 33.9 37.8 24.9 59 6.4 NE 13 17 7 9 1003.3 1003.2 0.0
19/04:00pm 33.5 36.9 24.7 60 6.2 NE 15 17 8 9 1003.1 1003.0 0.0
19/03:30pm 33.8 38.1 24.9 59 6.3 NNE 11 15 6 8 1003.4 1003.3 0.0
19/03:00pm 33.4 37.5 24.5 59 6.3 N 11 17 6 9 1003.8 1003.7 0.0
19/02:30pm 33.5 38.0 24.6 59 6.3 N 9 15 5 8 1004.3 1004.2 0.0
19/02:00pm 33.2 36.9 24.5 60 6.1 NW 13 22 7 12 1004.8 1004.7 0.0
19/01:30pm 33.2 36.7 24.9 61 5.9 N 15 22 8 12 1005.3 1005.2 0.0
19/01:00pm 33.3 37.5 24.8 61 6.0 N 11 17 6 9 1005.6 1005.5 0.0
19/12:30pm 32.4 35.2 24.3 62 5.7 N 17 24 9 13 1006.2 1006.1 0.0
19/12:00pm 33.0 36.1 24.8 62 5.8 N 17 24 9 13 1006.7 1006.6 0.0
19/11:30am 32.2 36.2 23.7 61 5.9 WNW 9 13 5 7 1007.2 1007.1 0.0
19/11:00am 31.9 36.0 24.0 63 5.5 NNW 9 13 5 7 1007.6 1007.5 0.0
19/10:30am 31.7 35.3 24.3 65 5.2 NNW 13 19 7 10 1008.2 1008.1 0.0
19/10:00am 31.2 34.8 24.3 66 4.8 NNW 13 17 7 9 1008.6 1008.5 0.0
19/09:30am 30.8 34.7 24.8 70 4.2 NNW 13 19 7 10 1008.7 1008.6 0.0
19/09:00am 30.4 34.3 24.9 72 3.9 NW 13 17 7 9 1009.0 1008.9 0.0
19/08:30am 30.1 34.3 24.8 73 3.7 NW 11 15 6 8 1009.1 1009.0 0.0
19/08:00am 29.4 34.0 24.7 76 3.3 NW 9 13 5 7 1009.1 1009.0 0.0
19/07:30am 29.0 34.1 25.0 79 2.8 WNW 7 9 4 5 1008.8 1008.7 0.0
19/07:00am 28.1 34.6 25.1 84 2.1 CALM 0 0 0 0 1008.3 1008.2 0.0
19/06:30am 27.3 33.9 25.2 88 1.5 CALM 0 0 0 0 1008.2 1008.1 0.0
19/06:00am 27.2 33.4 25.2 89 1.4 W 2 7 1 4 1008.0 1007.9 0.0
19/05:30am 27.2 32.2 25.4 90 1.3 NW 9 11 5 6 1007.6 1007.5 0.0
19/05:25am 27.2 32.3 25.5 90 1.2 NW 9 11 5 6 1007.6 1007.5 0.0
19/05:00am 28.2 33.2 25.4 85 2.0 N 9 13 5 7 1007.6 1007.5 0.0
19/04:42am 28.1 32.7 25.3 85 2.0 N 11 13 6 7 1007.5 1007.4 0.0
19/04:30am 28.1 33.3 25.1 84 2.1 N 7 11 4 6 1007.6 1007.5 0.0
19/04:00am 27.7 32.6 24.7 84 2.1 N 7 9 4 5 1007.4 1007.3 0.0
19/03:30am 28.0 32.6 24.7 82 2.3 N 9 9 5 5 1007.5 1007.4 0.0
19/03:00am 28.1 32.5 24.4 80 2.6 N 9 13 5 7 1007.6 1007.5 0.0
19/02:30am 28.1 32.5 24.4 80 2.6 N 9 13 5 7 1007.8 1007.7 0.0
19/02:00am 28.1 32.4 24.2 79 2.7 N 9 13 5 7 1008.0 1007.9 0.0
19/01:30am 28.0 32.6 24.1 79 2.7 N 7 7 4 4 1008.0 1007.9 0.0
19/01:00am 28.1 31.7 23.7 77 3.0 N 11 15 6 8 1008.1 1008.0 0.0
19/12:30am 28.2 32.5 24.2 79 2.8 N 9 11 5 6 1008.7 1008.6 0.0
19/12:00am 28.2 31.8 23.7 76 3.1 N 11 13 6 7 1009.0 1008.9 0.0
 
Date/Time
EST
Temp
°C
App
Temp
°C
Dew
Point
°C
Rel
Hum
%
Delta-T
°C
Wind Press
QNH
hPa
Press
MSL
hPa
Rain since
9am
mm
Dir  Spd
km/h
Gust
km/h
Spd
kts
Gust
kts
18/11:30pm 28.2 31.5 23.9 77 3.0 N 13 17 7 9 1009.0 1008.9 0.0
18/11:00pm 28.3 31.7 24.0 77 3.0 N 13 15 7 8 1009.4 1009.3 0.0
18/10:30pm 28.4 32.0 23.8 76 3.2 N 11 17 6 9 1009.4 1009.3 0.0
18/10:00pm 28.3 31.8 23.5 75 3.3 N 11 13 6 7 1009.1 1009.0 0.0
18/09:30pm 28.3 31.3 23.3 74 3.4 N 13 15 7 8 1009.1 1009.0 0.0
18/09:00pm 28.2 30.9 23.5 75 3.2 N 15 19 8 10 1008.9 1008.8 0.0
18/08:30pm 28.0 31.0 23.3 75 3.2 N 13 17 7 9 1008.8 1008.7 0.0
18/08:00pm 27.7 31.0 23.2 76 3.1 N 11 15 6 8 1008.3 1008.2 0.0
18/07:30pm 27.7 30.6 23.2 76 3.1 N 13 17 7 9 1007.9 1007.8 0.0
18/07:00pm 28.0 31.3 23.2 75 3.3 N 11 17 6 9 1007.6 1007.5 0.0
18/06:30pm 28.5 31.6 22.9 71 3.8 N 11 17 6 9 1007.2 1007.1 0.0
18/06:00pm 29.4 31.8 22.3 65 4.8 N 13 19 7 10 1006.9 1006.8 0.0
18/05:30pm 30.2 32.7 22.4 63 5.3 N 13 17 7 9 1006.8 1006.7 0.0
18/05:00pm 31.0 33.6 22.7 61 5.7 N 13 19 7 10 1006.8 1006.7 0.0
18/04:30pm 30.9 33.1 22.6 61 5.7 N 15 20 8 11 1006.5 1006.4 0.0
18/04:00pm 30.5 32.2 22.3 61 5.6 N 17 20 9 11 1006.4 1006.3 0.0
18/03:30pm 30.7 32.7 22.3 61 5.7 N 15 20 8 11 1006.7 1006.6 0.0
18/03:00pm 30.8 33.1 22.8 62 5.5 N 15 19 8 10 1007.2 1007.1 0.0
18/02:30pm 30.9 33.5 22.7 61 5.6 N 13 19 7 10 1007.7 1007.6 0.0
18/02:00pm 30.8 33.2 22.3 60 5.8 N 13 19 7 10 1008.1 1008.0 0.0
18/01:30pm 30.8 33.4 22.6 61 5.6 N 13 17 7 9 1008.6 1008.5 0.0
18/01:00pm 30.9 32.8 22.7 61 5.6 N 17 26 9 14 1009.1 1009.0 0.0
18/12:30pm 30.8 33.2 22.9 62 5.4 N 15 28 8 15 1009.4 1009.3 0.0
18/12:00pm 30.9 34.3 22.7 61 5.6 NNW 9 19 5 10 1009.8 1009.7 0.0
18/11:30am 31.1 33.8 22.8 61 5.7 NNW 13 20 7 11 1010.1 1010.0 0.0
18/11:00am 30.6 32.4 21.9 59 5.9 NNE 15 22 8 12 1010.5 1010.4 0.0
18/10:30am 30.3 32.6 22.0 61 5.6 N 13 22 7 12 1010.8 1010.7 0.0
18/10:00am 30.4 32.7 22.1 61 5.6 NE 13 20 7 11 1010.9 1010.8 0.0
18/09:30am 29.7 32.2 21.8 62 5.3 NE 11 15 6 8 1011.0 1010.9 0.0
18/09:00am 29.9 32.4 21.7 61 5.5 NE 11 13 6 7 1011.0 1010.9 0.2
18/08:30am 29.4 32.3 21.8 63 5.1 NE 9 13 5 7 1010.9 1010.8 0.2
18/08:00am 29.1 32.4 21.5 63 5.1 E 6 9 3 5 1010.7 1010.6 0.2
18/07:30am 28.5 33.5 22.5 70 4.1 CALM 0 0 0 0 1010.4 1010.3 0.2
18/07:00am 26.9 31.9 22.5 77 3.0 CALM 0 0 0 0 1010.0 1009.9 0.2
18/06:30am 25.5 30.5 22.5 83 2.0 CALM 0 0 0 0 1009.7 1009.6 0.2
18/06:00am 25.4 30.2 22.1 82 2.2 CALM 0 0 0 0 1009.4 1009.3 0.2
18/05:30am 25.6 30.4 22.2 81 2.3 CALM 0 0 0 0 1009.3 1009.2 0.2
18/05:00am 25.9 28.9 22.0 79 2.6 N 9 11 5 6 1009.0 1008.9 0.2
18/04:30am 26.2 30.3 22.3 79 2.6 N 4 7 2 4 1009.0 1008.9 0.2
18/04:00am 26.1 30.0 22.5 80 2.4 N 6 9 3 5 1009.0 1008.9 0.2
18/03:30am 26.4 29.9 21.9 76 3.0 N 6 7 3 4 1009.0 1008.9 0.2
18/03:00am 26.1 29.2 22.1 78 2.7 NNE 9 11 5 6 1009.0 1008.9 0.2
18/02:30am 26.4 29.4 21.9 76 3.0 NE 9 13 5 7 1009.2 1009.1 0.2
18/02:00am 27.1 29.1 21.6 72 3.7 NE 13 15 7 8 1009.3 1009.2 0.2
18/01:30am 26.9 30.0 22.8 78 2.8 NNE 11 13 6 7 1009.4 1009.3 0.2
18/01:00am 26.9 29.5 22.6 77 2.9 NNE 13 15 7 8 1009.6 1009.5 0.2
18/12:30am 26.9 30.0 22.8 78 2.8 N 11 13 6 7 1009.9 1009.8 0.2
18/12:00am 26.6 30.1 22.9 80 2.5 N 9 13 5 7 1010.1 1010.0 0.2
 
Date/Time
EST
Temp
°C
App
Temp
°C
Dew
Point
°C
Rel
Hum
%
Delta-T
°C
Wind Press
QNH
hPa
Press
MSL
hPa
Rain since
9am
mm
Dir  Spd
km/h
Gust
km/h
Spd
kts
Gust
kts
17/11:30pm 26.7 29.1 22.9 79 2.6 NE 15 19 8 10 1010.4 1010.3 0.2

Other formats

Comma delimited format used in spreadsheet applications
http://www.bom.gov.au/fwo/IDQ60801/IDQ60801.94294.axf

JavaScript Object Notation format (JSON) in row-major order
http://www.bom.gov.au/fwo/IDQ60801/IDQ60801.94294.json

Data quality

Most of these data are generated automatically and are frequently updated. Quality checks on data are not normally performed. It is possible for incorrect values to appear. Refer to information at About Latest Weather Observations and please check the disclaimer before using these data.